Terminal Aerodrome Forecast
Issued by NWS

Current Version | Previous Version | Text Only | Print | Product List | Glossary On
Versions: 1 2 3 4 5 6 7 8 9 10 11 12
000
FTUS42 TJSJ 031736
TAFJSJ
TAF
TJSJ 031736Z 0318/0418 06010KT P6SM VCSH SCT025 BKN060
      TEMPO 0318/0322 RA SCT022 BKN030
     FM032300 10005KT P6SM SCT025
     FM041300 08012KT P6SM SCT025=

USA.gov is the U.S. government's official web portal to all federal, state and local government web resources and services.